Time,TemperatureF,DewpointF,PressureIn,WindDirection,WindDirectionDegrees,WindSpeedMPH,WindSpeedGustMPH,Humidity,HourlyPrecipIn,Conditions,Clouds,dailyrainin,SoftwareType,DateUTC
2013-01-21 00:04:00,46.3,27.7,30.06,SE,133,0.0,0.0,48,0.00,,---,0.00,VWS V14.00,2013-01-21 07:04:00,
2013-01-21 00:09:00,46.3,26.7,30.06,SE,133,0.0,0.0,46,0.00,,---,0.00,VWS V14.00,2013-01-21 07:09:00,
2013-01-21 00:14:00,44.4,25.5,30.06,SE,133,0.0,0.0,47,0.00,,---,0.00,VWS V14.00,2013-01-21 07:14:00,
2013-01-21 00:19:00,43.2,26.3,30.06,SE,133,0.0,0.0,51,0.00,,---,0.00,VWS V14.00,2013-01-21 07:19:00,
2013-01-21 00:24:00,43.2,27.2,30.06,SE,133,0.0,0.0,53,0.00,,---,0.00,VWS V14.00,2013-01-21 07:24:00,
2013-01-21 00:29:00,43.8,26.9,30.06,SE,133,0.0,0.0,51,0.00,,---,0.00,VWS V14.00,2013-01-21 07:29:00,
2013-01-21 00:34:00,44.5,27.5,30.06,SE,133,0.0,0.0,51,0.00,,---,0.00,VWS V14.00,2013-01-21 07:34:00,
2013-01-21 00:39:00,45.3,27.8,30.06,SE,133,0.0,0.0,50,0.00,,---,0.00,VWS V14.00,2013-01-21 07:39:00,
2013-01-21 00:44:00,46.2,27.6,30.06,SE,133,0.0,0.0,48,0.00,,---,0.00,VWS V14.00,2013-01-21 07:44:00,
2013-01-21 00:49:00,46.9,27.7,30.06,SE,133,0.0,0.0,47,0.00,,---,0.00,VWS V14.00,2013-01-21 07:49:00,
2013-01-21 00:54:00,46.8,27.6,30.06,SE,133,0.0,0.0,47,0.00,,---,0.00,VWS V14.00,2013-01-21 07:54:00,
2013-01-21 00:59:00,45.7,25.0,30.06,SE,133,0.0,0.0,44,0.00,,---,0.00,VWS V14.00,2013-01-21 07:59:00,
2013-01-21 01:04:00,43.4,25.5,30.06,SE,133,0.0,0.0,49,0.00,,---,0.00,VWS V14.00,2013-01-21 08:04:00,
2013-01-21 01:09:00,41.9,26.0,30.06,SE,133,0.0,0.0,53,0.00,,---,0.00,VWS V14.00,2013-01-21 08:09:00,
2013-01-21 01:14:00,41.7,26.3,30.06,SE,133,0.0,0.0,54,0.00,,---,0.00,VWS V14.00,2013-01-21 08:14:00,
2013-01-21 01:19:00,41.3,25.5,30.06,SE,133,0.0,0.0,53,0.00,,---,0.00,VWS V14.00,2013-01-21 08:19:00,
2013-01-21 01:24:00,42.6,27.6,30.06,SE,133,0.0,0.0,55,0.00,,---,0.00,VWS V14.00,2013-01-21 08:24:00,
2013-01-21 01:29:00,44.4,27.9,30.06,SE,133,0.0,0.0,52,0.00,,---,0.00,VWS V14.00,2013-01-21 08:29:00,
2013-01-21 01:34:00,45.5,27.5,30.06,SE,133,0.0,0.0,49,0.00,,---,0.00,VWS V14.00,2013-01-21 08:34:00,
2013-01-21 01:39:00,45.4,27.4,30.06,SE,133,0.0,0.0,49,0.00,,---,0.00,VWS V14.00,2013-01-21 08:39:00,
2013-01-21 01:44:00,45.1,27.1,30.06,SE,133,0.0,0.0,49,0.00,,---,0.00,VWS V14.00,2013-01-21 08:44:00,
2013-01-21 01:49:00,45.0,28.0,30.06,SE,133,0.0,0.0,51,0.00,,---,0.00,VWS V14.00,2013-01-21 08:49:00,
2013-01-21 01:54:00,46.0,28.4,30.06,SE,133,0.0,0.0,50,0.00,,---,0.00,VWS V14.00,2013-01-21 08:54:00,
2013-01-21 01:59:00,47.1,28.4,30.05,SE,133,0.0,0.0,48,0.00,,---,0.00,VWS V14.00,2013-01-21 08:59:00,
2013-01-21 02:04:00,45.8,26.7,30.05,SE,133,0.0,0.0,47,0.00,,---,0.00,VWS V14.00,2013-01-21 09:04:00,
2013-01-21 02:09:00,45.2,27.7,30.05,SE,133,0.0,0.0,50,0.00,,---,0.00,VWS V14.00,2013-01-21 09:09:00,
2013-01-21 02:14:00,44.8,27.3,30.05,SE,133,0.0,0.0,50,0.00,,---,0.00,VWS V14.00,2013-01-21 09:14:00,
2013-01-21 02:19:00,44.1,27.1,30.05,SE,133,0.0,0.0,51,0.00,,---,0.00,VWS V14.00,2013-01-21 09:19:00,
2013-01-21 02:24:00,44.3,28.3,30.05,SE,133,0.0,0.0,53,0.00,,---,0.00,VWS V14.00,2013-01-21 09:24:00,
2013-01-21 02:29:00,45.1,28.5,30.05,SE,133,0.0,0.0,52,0.00,,---,0.00,VWS V14.00,2013-01-21 09:29:00,
2013-01-21 02:34:00,45.4,28.4,30.05,SE,133,0.0,0.0,51,0.00,,---,0.00,VWS V14.00,2013-01-21 09:34:00,
2013-01-21 02:39:00,45.4,28.4,30.05,SE,133,0.0,0.0,51,0.00,,---,0.00,VWS V14.00,2013-01-21 09:39:00,
2013-01-21 02:44:00,45.3,27.8,30.05,SE,133,0.0,0.0,50,0.00,,---,0.00,VWS V14.00,2013-01-21 09:44:00,
2013-01-21 02:49:00,44.4,26.5,30.05,SE,133,0.0,0.0,49,0.00,,---,0.00,VWS V14.00,2013-01-21 09:49:00,
2013-01-21 02:54:00,42.4,26.0,30.05,SE,133,0.0,0.0,52,0.00,,---,0.00,VWS V14.00,2013-01-21 09:54:00,
2013-01-21 02:59:00,41.5,27.0,30.05,SE,133,0.0,0.0,56,0.00,,---,0.00,VWS V14.00,2013-01-21 09:59:00,
2013-01-21 03:04:00,42.1,27.5,30.05,SE,133,0.0,0.0,56,0.00,,---,0.00,VWS V14.00,2013-01-21 10:04:00,
2013-01-21 03:09:00,42.8,27.8,30.05,SE,133,0.0,0.0,55,0.00,,---,0.00,VWS V14.00,2013-01-21 10:09:00,
2013-01-21 03:14:00,43.4,27.9,30.05,SE,133,0.0,0.0,54,0.00,,---,0.00,VWS V14.00,2013-01-21 10:14:00,
2013-01-21 03:19:00,43.1,26.7,30.05,SE,133,0.0,0.0,52,0.00,,---,0.00,VWS V14.00,2013-01-21 10:19:00,
2013-01-21 03:25:00,42.4,27.0,30.05,SE,133,0.0,0.0,54,0.00,,---,0.00,VWS V14.00,2013-01-21 10:25:00,
2013-01-21 03:30:00,41.8,26.4,30.04,SE,133,0.0,0.0,54,0.00,,---,0.00,VWS V14.00,2013-01-21 10:30:00,
2013-01-21 03:35:00,41.3,27.6,30.04,SE,133,0.0,0.0,58,0.00,,---,0.00,VWS V14.00,2013-01-21 10:35:00,
2013-01-21 03:40:00,42.0,27.9,30.04,SE,133,0.0,0.0,57,0.00,,---,0.00,VWS V14.00,2013-01-21 10:40:00,
2013-01-21 03:45:00,42.8,27.8,30.04,SE,133,0.0,0.0,55,0.00,,---,0.00,VWS V14.00,2013-01-21 10:45:00,
2013-01-21 03:50:00,42.2,26.8,30.04,SE,133,0.0,0.0,54,0.00,,---,0.00,VWS V14.00,2013-01-21 10:50:00,
2013-01-21 03:55:00,41.4,26.9,30.04,SE,133,0.0,0.0,56,0.00,,---,0.00,VWS V14.00,2013-01-21 10:55:00,
2013-01-21 04:00:00,40.4,26.0,30.04,SE,133,0.0,0.0,56,0.00,,---,0.00,VWS V14.00,2013-01-21 11:00:00,
2013-01-21 04:05:00,39.8,26.2,30.03,SE,133,0.0,0.0,58,0.00,,---,0.00,VWS V14.00,2013-01-21 11:05:00,
2013-01-21 04:10:00,39.3,27.0,30.03,SE,133,0.0,0.0,61,0.00,,---,0.00,VWS V14.00,2013-01-21 11:10:00,
2013-01-21 04:15:00,40.4,28.0,30.03,SE,133,0.0,0.0,61,0.00,,---,0.00,VWS V14.00,2013-01-21 11:15:00,
2013-01-21 04:20:00,41.7,27.6,30.03,SE,133,0.0,2.0,57,0.00,,---,0.00,VWS V14.00,2013-01-21 11:20:00,
2013-01-21 04:25:00,41.1,27.0,30.03,SE,133,0.0,2.0,57,0.00,,---,0.00,VWS V14.00,2013-01-21 11:25:00,
2013-01-21 04:30:00,40.2,26.6,30.03,SE,133,0.0,2.0,58,0.00,,---,0.00,VWS V14.00,2013-01-21 11:30:00,
2013-01-21 04:35:00,39.7,26.6,30.03,SE,133,0.0,0.0,59,0.00,,---,0.00,VWS V14.00,2013-01-21 11:35:00,
2013-01-21 04:40:00,39.4,26.7,30.03,SE,133,0.0,0.0,60,0.00,,---,0.00,VWS V14.00,2013-01-21 11:40:00,
2013-01-21 04:45:00,38.6,25.9,30.03,SE,133,0.0,0.0,60,0.00,,---,0.00,VWS V14.00,2013-01-21 11:45:00,
2013-01-21 04:50:00,38.0,25.8,30.03,SE,133,0.0,0.0,61,0.00,,---,0.00,VWS V14.00,2013-01-21 11:50:00,
2013-01-21 04:55:00,37.8,26.7,30.03,SE,133,0.0,0.0,64,0.00,,---,0.00,VWS V14.00,2013-01-21 11:55:00,
2013-01-21 05:00:00,38.4,26.9,30.03,SE,132,3.0,4.0,63,0.00,,---,0.00,VWS V14.00,2013-01-21 12:00:00,
2013-01-21 05:05:00,39.9,27.6,30.03,SE,131,3.0,3.0,61,0.00,,---,0.00,VWS V14.00,2013-01-21 12:05:00,
2013-01-21 05:10:00,41.7,28.0,30.03,SE,131,2.0,3.0,58,0.00,,---,0.00,VWS V14.00,2013-01-21 12:10:00,
2013-01-21 05:15:00,42.5,27.5,30.03,SE,131,0.0,3.0,55,0.00,,---,0.00,VWS V14.00,2013-01-21 12:15:00,
2013-01-21 05:20:00,42.5,27.5,30.03,SE,131,0.0,3.0,55,0.00,,---,0.00,VWS V14.00,2013-01-21 12:20:00,
2013-01-21 05:25:00,42.5,27.9,30.03,SE,131,0.0,3.0,56,0.00,,---,0.00,VWS V14.00,2013-01-21 12:25:00,
2013-01-21 05:30:00,42.5,27.5,30.03,SE,131,0.0,3.0,55,0.00,,---,0.00,VWS V14.00,2013-01-21 12:30:00,
2013-01-21 05:35:00,42.3,27.3,30.03,SE,131,0.0,0.0,55,0.00,,---,0.00,VWS V14.00,2013-01-21 12:35:00,
2013-01-21 05:40:00,42.2,27.6,30.03,SE,131,0.0,0.0,56,0.00,,---,0.00,VWS V14.00,2013-01-21 12:40:00,
2013-01-21 05:45:00,42.0,27.0,30.03,SE,131,0.0,0.0,55,0.00,,---,0.00,VWS V14.00,2013-01-21 12:45:00,
2013-01-21 05:50:00,41.7,26.7,30.03,SE,131,0.0,0.0,55,0.00,,---,0.00,VWS V14.00,2013-01-21 12:50:00,
2013-01-21 05:55:00,40.0,24.3,30.03,SE,131,0.0,0.0,53,0.00,,---,0.00,VWS V14.00,2013-01-21 12:55:00,
2013-01-21 06:00:00,38.0,25.0,30.04,SE,131,0.0,0.0,59,0.00,,---,0.00,VWS V14.00,2013-01-21 13:00:00,
2013-01-21 06:05:00,37.0,24.8,30.04,SE,131,0.0,0.0,61,0.00,,---,0.00,VWS V14.00,2013-01-21 13:05:00,
2013-01-21 06:10:00,36.4,25.0,30.04,SE,131,0.0,0.0,63,0.00,,---,0.00,VWS V14.00,2013-01-21 13:10:00,
2013-01-21 06:15:00,36.1,25.9,30.05,SE,131,0.0,0.0,66,0.00,,---,0.00,VWS V14.00,2013-01-21 13:15:00,
2013-01-21 06:20:00,36.5,25.5,30.05,SE,131,0.0,0.0,64,0.00,,---,0.00,VWS V14.00,2013-01-21 13:20:00,
2013-01-21 06:25:00,37.1,25.7,30.05,SE,131,0.0,0.0,63,0.00,,---,0.00,VWS V14.00,2013-01-21 13:25:00,
2013-01-21 06:30:00,36.3,25.3,30.05,SE,131,0.0,0.0,64,0.00,,---,0.00,VWS V14.00,2013-01-21 13:30:00,
2013-01-21 06:35:00,35.7,25.1,30.05,SE,131,0.0,0.0,65,0.00,,---,0.00,VWS V14.00,2013-01-21 13:35:00,
2013-01-21 06:40:00,35.3,24.4,30.05,SE,131,0.0,0.0,64,0.00,,---,0.00,VWS V14.00,2013-01-21 13:40:00,
2013-01-21 06:45:00,34.1,23.2,30.05,SE,131,0.0,0.0,64,0.00,,---,0.00,VWS V14.00,2013-01-21 13:45:00,
2013-01-21 06:50:00,33.0,23.6,30.05,SE,131,0.0,0.0,68,0.00,,---,0.00,VWS V14.00,2013-01-21 13:50:00,
2013-01-21 06:55:00,32.5,23.5,30.05,SE,131,0.0,0.0,69,0.00,,---,0.00,VWS V14.00,2013-01-21 13:55:00,
2013-01-21 07:00:00,32.7,25.0,30.05,SE,131,0.0,0.0,73,0.00,,---,0.00,VWS V14.00,2013-01-21 14:00:00,
2013-01-21 07:05:00,34.4,25.0,30.05,SE,131,0.0,0.0,68,0.00,,---,0.00,VWS V14.00,2013-01-21 14:05:00,
2013-01-21 07:10:00,35.1,24.9,30.05,SE,131,0.0,0.0,66,0.00,,---,0.00,VWS V14.00,2013-01-21 14:10:00,
2013-01-21 07:15:00,34.5,24.7,30.05,SE,131,0.0,0.0,67,0.00,,---,0.00,VWS V14.00,2013-01-21 14:15:00,
2013-01-21 07:20:00,34.1,24.7,30.05,SE,131,0.0,0.0,68,0.00,,---,0.00,VWS V14.00,2013-01-21 14:20:00,
2013-01-21 07:25:00,34.3,25.2,30.05,SE,131,0.0,0.0,69,0.00,,---,0.00,VWS V14.00,2013-01-21 14:25:00,
2013-01-21 07:30:00,35.4,26.3,30.05,SE,131,0.0,0.0,69,0.00,,---,0.00,VWS V14.00,2013-01-21 14:30:00,
2013-01-21 07:35:00,36.2,26.0,30.05,SE,131,0.0,0.0,66,0.00,,---,0.00,VWS V14.00,2013-01-21 14:35:00,
2013-01-21 07:40:00,36.7,26.1,30.05,SE,131,0.0,0.0,65,0.00,,---,0.00,VWS V14.00,2013-01-21 14:40:00,
2013-01-21 07:45:00,36.2,24.8,30.06,SE,131,0.0,0.0,63,0.00,,---,0.00,VWS V14.00,2013-01-21 14:45:00,
2013-01-21 07:50:00,35.7,24.7,30.06,SE,131,0.0,0.0,64,0.00,,---,0.00,VWS V14.00,2013-01-21 14:50:00,
2013-01-21 07:55:00,34.9,24.7,30.06,SE,131,0.0,0.0,66,0.00,,---,0.00,VWS V14.00,2013-01-21 14:55:00,
2013-01-21 08:00:00,34.7,25.6,30.06,SE,131,0.0,0.0,69,0.00,,---,0.00,VWS V14.00,2013-01-21 15:00:00,
2013-01-21 08:05:00,35.6,26.5,30.06,SE,131,0.0,0.0,69,0.00,,---,0.00,VWS V14.00,2013-01-21 15:05:00,
2013-01-21 08:10:00,36.9,28.4,30.06,SE,131,0.0,0.0,71,0.00,,---,0.00,VWS V14.00,2013-01-21 15:10:00,
2013-01-21 08:15:00,39.3,29.6,30.06,SE,131,0.0,0.0,68,0.00,,---,0.00,VWS V14.00,2013-01-21 15:15:00,
2013-01-21 08:20:00,42.3,30.6,30.06,SE,131,0.0,0.0,63,0.00,,---,0.00,VWS V14.00,2013-01-21 15:20:00,
2013-01-21 08:25:00,44.5,31.5,30.06,SE,131,0.0,0.0,60,0.00,,---,0.00,VWS V14.00,2013-01-21 15:25:00,
2013-01-21 08:30:00,46.8,30.6,30.06,SE,131,0.0,0.0,53,0.00,,---,0.00,VWS V14.00,2013-01-21 15:30:00,
2013-01-21 08:35:00,48.8,31.0,30.06,SE,131,0.0,0.0,50,0.00,,---,0.00,VWS V14.00,2013-01-21 15:35:00,
2013-01-21 08:40:00,50.5,31.6,30.06,SE,131,0.0,0.0,48,0.00,,---,0.00,VWS V14.00,2013-01-21 15:40:00,
2013-01-21 08:45:00,52.2,31.5,30.07,SE,131,0.0,0.0,45,0.00,,---,0.00,VWS V14.00,2013-01-21 15:45:00,
2013-01-21 08:50:00,53.2,30.1,30.07,SE,131,0.0,3.0,41,0.00,,---,0.00,VWS V14.00,2013-01-21 15:50:00,
2013-01-21 08:55:00,53.5,29.8,30.07,SE,131,0.0,3.0,40,0.00,,---,0.00,VWS V14.00,2013-01-21 15:55:00,
2013-01-21 09:00:00,54.0,29.6,30.08,SE,131,0.0,3.0,39,0.00,,---,0.00,VWS V14.00,2013-01-21 16:00:00,
2013-01-21 09:05:00,54.5,28.8,30.08,SE,131,0.0,0.0,37,0.00,,---,0.00,VWS V14.00,2013-01-21 16:05:00,
2013-01-21 09:10:00,55.0,27.9,30.08,SW,222,3.0,4.0,35,0.00,,---,0.00,VWS V14.00,2013-01-21 16:10:00,
2013-01-21 09:15:00,55.4,28.9,30.08,SW,222,0.0,4.0,36,0.00,,---,0.00,VWS V14.00,2013-01-21 16:15:00,
2013-01-21 09:20:00,55.8,27.9,30.08,SW,222,0.0,4.0,34,0.00,,---,0.00,VWS V14.00,2013-01-21 16:20:00,
2013-01-21 09:25:00,56.4,28.4,30.08,SW,222,0.0,4.0,34,0.00,,---,0.00,VWS V14.00,2013-01-21 16:25:00,
2013-01-21 09:30:00,56.9,28.1,30.08,SW,225,0.0,4.0,33,0.00,,---,0.00,VWS V14.00,2013-01-21 16:30:00,
2013-01-21 09:35:00,57.3,28.5,30.08,SW,225,0.0,0.0,33,0.00,,---,0.00,VWS V14.00,2013-01-21 16:35:00,
2013-01-21 09:41:00,57.6,27.2,30.09,WSW,245,2.0,5.0,31,0.00,,---,0.00,VWS V14.00,2013-01-21 16:41:00,
2013-01-21 09:46:00,57.8,27.4,30.09,WNW,286,4.0,6.0,31,0.00,,---,0.00,VWS V14.00,2013-01-21 16:46:00,
2013-01-21 09:51:00,57.8,27.4,30.09,WNW,286,1.0,6.0,31,0.00,,---,0.00,VWS V14.00,2013-01-21 16:51:00,
2013-01-21 09:56:00,57.8,27.4,30.09,West,274,0.0,6.0,31,0.00,,---,0.00,VWS V14.00,2013-01-21 16:56:00,
2013-01-21 10:01:00,58.1,27.6,30.10,West,275,0.0,6.0,31,0.00,,---,0.00,VWS V14.00,2013-01-21 17:01:00,
2013-01-21 10:06:00,58.6,27.3,30.09,West,269,3.0,5.0,30,0.00,,---,0.00,VWS V14.00,2013-01-21 17:06:00,
2013-01-21 10:11:00,58.8,27.5,30.10,West,269,4.0,5.0,30,0.00,,---,0.00,VWS V14.00,2013-01-21 17:11:00,
2013-01-21 10:16:00,58.9,27.5,30.10,WNW,297,5.0,6.0,30,0.00,,---,0.00,VWS V14.00,2013-01-21 17:16:00,
2013-01-21 10:21:00,59.3,27.9,30.10,NW,317,6.0,10.0,30,0.00,,---,0.00,VWS V14.00,2013-01-21 17:21:00,
2013-01-21 10:26:00,59.6,27.3,30.10,NNW,338,5.0,10.0,29,0.00,,---,0.00,VWS V14.00,2013-01-21 17:26:00,
2013-01-21 10:31:00,60.0,27.7,30.10,WNW,299,9.0,10.0,29,0.00,,---,0.00,VWS V14.00,2013-01-21 17:31:00,
2013-01-21 10:36:00,60.1,27.8,30.10,NNW,327,4.0,9.0,29,0.00,,---,0.00,VWS V14.00,2013-01-21 17:36:00,
2013-01-21 10:41:00,60.4,28.0,30.10,NW,325,7.0,10.0,29,0.00,,---,0.00,VWS V14.00,2013-01-21 17:41:00,
2013-01-21 10:46:00,60.9,27.6,30.10,NNW,331,6.0,14.0,28,0.00,,---,0.00,VWS V14.00,2013-01-21 17:46:00,
2013-01-21 10:51:00,61.3,27.1,30.10,NW,320,5.0,14.0,27,0.00,,---,0.00,VWS V14.00,2013-01-21 17:51:00,
2013-01-21 10:56:00,61.3,27.1,30.10,NW,316,6.0,14.0,27,0.00,,---,0.00,VWS V14.00,2013-01-21 17:56:00,
2013-01-21 11:01:00,61.3,27.1,30.10,NNW,329,12.0,14.0,27,0.00,,---,0.00,VWS V14.00,2013-01-21 18:01:00,
2013-01-21 11:06:00,61.6,28.2,30.10,NNW,348,7.0,11.0,28,0.00,,---,0.00,VWS V14.00,2013-01-21 18:06:00,
2013-01-21 11:11:00,61.7,27.4,30.10,NW,317,7.0,11.0,27,0.00,,---,0.00,VWS V14.00,2013-01-21 18:11:00,
2013-01-21 11:16:00,61.6,27.3,30.10,WNW,298,7.0,11.0,27,0.00,,---,0.00,VWS V14.00,2013-01-21 18:16:00,
2013-01-21 11:21:00,61.9,27.6,30.10,NW,321,5.0,11.0,27,0.00,,---,0.00,VWS V14.00,2013-01-21 18:21:00,
2013-01-21 11:26:00,62.3,27.0,30.10,NNW,331,7.0,11.0,26,0.00,,---,0.00,VWS V14.00,2013-01-21 18:26:00,
2013-01-21 11:31:00,62.6,27.3,30.10,NW,316,8.0,12.0,26,0.00,,---,0.00,VWS V14.00,2013-01-21 18:31:00,
2013-01-21 11:36:00,62.7,27.4,30.10,NNW,342,5.0,11.0,26,0.00,,---,0.00,VWS V14.00,2013-01-21 18:36:00,
2013-01-21 11:41:00,63.1,27.7,30.09,NNW,333,6.0,12.0,26,0.00,,---,0.00,VWS V14.00,2013-01-21 18:41:00,
2013-01-21 11:46:00,63.5,28.0,30.09,NNW,343,4.0,12.0,26,0.00,,---,0.00,VWS V14.00,2013-01-21 18:46:00,
2013-01-21 11:51:00,63.7,28.2,30.08,WNW,302,9.0,12.0,26,0.00,,---,0.00,VWS V14.00,2013-01-21 18:51:00,
2013-01-21 11:56:00,64.2,28.6,30.08,NW,322,7.0,12.0,26,0.00,,---,0.00,VWS V14.00,2013-01-21 18:56:00,
2013-01-21 12:01:00,64.4,27.8,30.08,NW,304,9.0,12.0,25,0.00,,---,0.00,VWS V14.00,2013-01-21 19:01:00,
2013-01-21 12:06:00,64.3,27.8,30.08,NW,311,5.0,9.0,25,0.00,,---,0.00,VWS V14.00,2013-01-21 19:06:00,
2013-01-21 12:11:00,64.2,27.7,30.07,NW,319,6.0,10.0,25,0.00,,---,0.00,VWS V14.00,2013-01-21 19:11:00,
2013-01-21 12:16:00,64.7,28.1,30.07,NNW,327,6.0,12.0,25,0.00,,---,0.00,VWS V14.00,2013-01-21 19:16:00,
2013-01-21 12:21:00,65.1,28.4,30.07,NW,315,10.0,12.0,25,0.00,,---,0.00,VWS V14.00,2013-01-21 19:21:00,
2013-01-21 12:26:00,64.9,28.3,30.07,NW,323,13.0,14.0,25,0.00,,---,0.00,VWS V14.00,2013-01-21 19:26:00,
2013-01-21 12:31:00,64.9,28.3,30.06,NNW,332,9.0,14.0,25,0.00,,---,0.00,VWS V14.00,2013-01-21 19:31:00,
2013-01-21 12:36:00,65.3,28.6,30.07,NW,319,10.0,12.0,25,0.00,,---,0.00,VWS V14.00,2013-01-21 19:36:00,
2013-01-21 12:41:00,65.8,28.0,30.05,NW,312,9.0,13.0,24,0.00,,---,0.00,VWS V14.00,2013-01-21 19:41:00,
2013-01-21 12:46:00,65.9,29.1,30.05,NW,324,5.0,13.0,25,0.00,,---,0.00,VWS V14.00,2013-01-21 19:46:00,
2013-01-21 12:51:00,66.1,28.3,30.05,NNW,329,9.0,13.0,24,0.00,,---,0.00,VWS V14.00,2013-01-21 19:51:00,
2013-01-21 12:56:00,66.1,29.3,30.05,North,351,4.0,13.0,25,0.00,,---,0.00,VWS V14.00,2013-01-21 19:56:00,
2013-01-21 13:01:00,65.9,29.1,30.05,NNW,327,0.0,13.0,25,0.00,,---,0.00,VWS V14.00,2013-01-21 20:01:00,
2013-01-21 13:06:00,66.2,28.4,30.04,WNW,290,4.0,7.0,24,0.00,,---,0.00,VWS V14.00,2013-01-21 20:06:00,
2013-01-21 13:11:00,66.6,29.7,30.03,WNW,290,4.0,7.0,25,0.00,,---,0.00,VWS V14.00,2013-01-21 20:11:00,
2013-01-21 13:16:00,67.0,29.0,30.03,NW,320,6.0,11.0,24,0.00,,---,0.00,VWS V14.00,2013-01-21 20:16:00,
2013-01-21 13:21:00,66.9,29.0,30.03,NW,322,10.0,11.0,24,0.00,,---,0.00,VWS V14.00,2013-01-21 20:21:00,
2013-01-21 13:26:00,67.2,29.2,30.03,WNW,300,3.0,12.0,24,0.00,,---,0.00,VWS V14.00,2013-01-21 20:26:00,
2013-01-21 13:31:00,67.3,29.3,30.02,NW,304,11.0,12.0,24,0.00,,---,0.00,VWS V14.00,2013-01-21 20:31:00,
2013-01-21 13:36:00,67.0,29.0,30.02,WNW,301,7.0,11.0,24,0.00,,---,0.00,VWS V14.00,2013-01-21 20:36:00,
2013-01-21 13:41:00,67.4,29.4,30.02,NW,306,5.0,11.0,24,0.00,,---,0.00,VWS V14.00,2013-01-21 20:41:00,
2013-01-21 13:46:00,67.6,29.6,30.02,WNW,292,7.0,12.0,24,0.00,,---,0.00,VWS V14.00,2013-01-21 20:46:00,
2013-01-21 13:51:00,67.4,28.4,30.02,NW,324,9.0,12.0,23,0.00,,---,0.00,VWS V14.00,2013-01-21 20:51:00,
2013-01-21 13:56:00,67.6,29.6,30.02,NNW,327,7.0,13.0,24,0.00,,---,0.00,VWS V14.00,2013-01-21 20:56:00,
2013-01-21 14:01:00,67.3,28.3,30.02,NW,312,11.0,11.0,23,0.00,,---,0.00,VWS V14.00,2013-01-21 21:01:00,
2013-01-21 14:06:00,67.5,28.4,30.02,WNW,296,7.0,14.0,23,0.00,,---,0.00,VWS V14.00,2013-01-21 21:06:00,
2013-01-21 14:11:00,67.9,28.8,30.02,NNW,348,5.0,14.0,23,0.00,,---,0.00,VWS V14.00,2013-01-21 21:11:00,
2013-01-21 14:16:00,67.7,28.6,30.02,NW,306,5.0,14.0,23,0.00,,---,0.00,VWS V14.00,2013-01-21 21:16:00,
2013-01-21 14:21:00,67.6,29.6,30.02,NW,313,8.0,14.0,24,0.00,,---,0.00,VWS V14.00,2013-01-21 21:21:00,
2013-01-21 14:26:00,68.0,29.9,30.02,NW,304,5.0,14.0,24,0.00,,---,0.00,VWS V14.00,2013-01-21 21:26:00,
2013-01-21 14:31:00,68.0,28.9,30.02,NNW,344,7.0,9.0,23,0.00,,---,0.00,VWS V14.00,2013-01-21 21:31:00,
2013-01-21 14:36:00,68.1,28.9,30.02,NNW,335,3.0,9.0,23,0.00,,---,0.00,VWS V14.00,2013-01-21 21:36:00,
2013-01-21 14:41:00,67.8,28.7,30.01,NW,325,10.0,11.0,23,0.00,,---,0.00,VWS V14.00,2013-01-21 21:41:00,
2013-01-21 14:46:00,67.9,29.8,30.01,NW,314,6.0,11.0,24,0.00,,---,0.00,VWS V14.00,2013-01-21 21:46:00,
2013-01-21 14:51:00,67.9,29.8,30.01,NW,319,0.0,11.0,24,0.00,,---,0.00,VWS V14.00,2013-01-21 21:51:00,
2013-01-21 14:56:00,68.3,30.1,30.01,WNW,301,11.0,11.0,24,0.00,,---,0.00,VWS V14.00,2013-01-21 21:56:00,
2013-01-21 15:02:00,68.3,29.1,30.00,NNW,333,9.0,14.0,23,0.00,,---,0.00,VWS V14.00,2013-01-21 22:02:00,
2013-01-21 15:07:00,68.2,29.0,30.01,WNW,298,6.0,14.0,23,0.00,,---,0.00,VWS V14.00,2013-01-21 22:07:00,
2013-01-21 15:12:00,68.1,27.9,30.01,North,355,6.0,14.0,22,0.00,,---,0.00,VWS V14.00,2013-01-21 22:12:00,
2013-01-21 15:17:00,67.8,28.7,30.00,NNW,342,11.0,14.0,23,0.00,,---,0.00,VWS V14.00,2013-01-21 22:17:00,
2013-01-21 15:22:00,67.6,28.5,30.00,NW,317,3.0,14.0,23,0.00,,---,0.00,VWS V14.00,2013-01-21 22:22:00,
2013-01-21 15:27:00,67.9,28.8,30.00,North,349,6.0,14.0,23,0.00,,---,0.00,VWS V14.00,2013-01-21 22:27:00,
2013-01-21 15:32:00,67.9,28.8,30.00,NNW,338,6.0,8.0,23,0.00,,---,0.00,VWS V14.00,2013-01-21 22:32:00,
2013-01-21 15:37:00,67.7,28.6,30.00,NW,311,6.0,11.0,23,0.00,,---,0.00,VWS V14.00,2013-01-21 22:37:00,
2013-01-21 15:42:00,67.6,28.5,30.00,NW,319,4.0,15.0,23,0.00,,---,0.00,VWS V14.00,2013-01-21 22:42:00,
2013-01-21 15:47:00,67.6,28.5,30.00,NNW,329,4.0,15.0,23,0.00,,---,0.00,VWS V14.00,2013-01-21 22:47:00,
2013-01-21 15:52:00,67.4,28.4,30.00,North,360,7.0,15.0,23,0.00,,---,0.00,VWS V14.00,2013-01-21 22:52:00,
2013-01-21 15:57:00,67.4,29.4,30.00,North,351,7.0,15.0,24,0.00,,---,0.00,VWS V14.00,2013-01-21 22:57:00,
2013-01-21 16:02:00,67.5,28.4,30.00,NW,322,7.0,7.0,23,0.00,,---,0.00,VWS V14.00,2013-01-21 23:02:00,
2013-01-21 16:07:00,67.6,29.6,30.00,NNW,346,5.0,7.0,24,0.00,,---,0.00,VWS V14.00,2013-01-21 23:07:00,
2013-01-21 16:12:00,67.7,29.6,30.00,NNW,344,6.0,9.0,24,0.00,,---,0.00,VWS V14.00,2013-01-21 23:12:00,
2013-01-21 16:17:00,67.4,29.4,30.00,NNW,348,4.0,9.0,24,0.00,,---,0.00,VWS V14.00,2013-01-21 23:17:00,
2013-01-21 16:22:00,67.2,29.2,30.00,North,355,4.0,10.0,24,0.00,,---,0.00,VWS V14.00,2013-01-21 23:22:00,
2013-01-21 16:27:00,67.1,29.1,30.00,North,360,5.0,10.0,24,0.00,,---,0.00,VWS V14.00,2013-01-21 23:27:00,
2013-01-21 16:32:00,67.0,29.0,30.00,North,5,5.0,6.0,24,0.00,,---,0.00,VWS V14.00,2013-01-21 23:32:00,
2013-01-21 16:37:00,66.9,30.0,30.00,NNE,30,5.0,6.0,25,0.00,,---,0.00,VWS V14.00,2013-01-21 23:37:00,
2013-01-21 16:42:00,67.0,30.0,30.00,North,355,4.0,7.0,25,0.00,,---,0.00,VWS V14.00,2013-01-21 23:42:00,
2013-01-21 16:47:00,66.8,29.9,30.00,North,360,3.0,7.0,25,0.00,,---,0.00,VWS V14.00,2013-01-21 23:47:00,
2013-01-21 16:52:00,66.7,29.8,30.00,NNE,15,5.0,7.0,25,0.00,,---,0.00,VWS V14.00,2013-01-21 23:52:00,
2013-01-21 16:57:00,66.5,29.6,30.01,NNE,21,0.0,7.0,25,0.00,,---,0.00,VWS V14.00,2013-01-21 23:57:00,
2013-01-21 17:02:00,66.2,29.4,30.01,NNE,16,6.0,6.0,25,0.00,,---,0.00,VWS V14.00,2013-01-22 00:02:00,
2013-01-21 17:07:00,65.6,28.9,30.01,NNE,15,4.0,6.0,25,0.00,,---,0.00,VWS V14.00,2013-01-22 00:07:00,
2013-01-21 17:12:00,65.0,29.3,30.01,NNE,17,2.0,6.0,26,0.00,,---,0.00,VWS V14.00,2013-01-22 00:12:00,
2013-01-21 17:17:00,64.5,28.9,30.01,NNE,17,5.0,6.0,26,0.00,,---,0.00,VWS V14.00,2013-01-22 00:17:00,
2013-01-21 17:22:00,63.9,28.4,30.01,NNE,17,0.0,6.0,26,0.00,,---,0.00,VWS V14.00,2013-01-22 00:22:00,
2013-01-21 17:27:00,63.4,28.9,30.01,NNE,25,0.0,6.0,27,0.00,,---,0.00,VWS V14.00,2013-01-22 00:27:00,
2013-01-21 17:32:00,62.9,28.4,30.00,NNE,25,0.0,0.0,27,0.00,,---,0.00,VWS V14.00,2013-01-22 00:32:00,
2013-01-21 17:37:00,62.1,27.8,30.00,NNE,25,0.0,0.0,27,0.00,,---,0.00,VWS V14.00,2013-01-22 00:37:00,
2013-01-21 17:42:00,61.4,28.0,30.00,NNE,25,0.0,0.0,28,0.00,,---,0.00,VWS V14.00,2013-01-22 00:42:00,
2013-01-21 17:47:00,60.8,28.4,30.00,NNE,25,0.0,0.0,29,0.00,,---,0.00,VWS V14.00,2013-01-22 00:47:00,
2013-01-21 17:52:00,60.2,27.9,30.00,NNE,25,0.0,0.0,29,0.00,,---,0.00,VWS V14.00,2013-01-22 00:52:00,
2013-01-21 17:57:00,59.6,28.1,30.00,NNE,25,0.0,0.0,30,0.00,,---,0.00,VWS V14.00,2013-01-22 00:57:00,
2013-01-21 18:02:00,59.1,27.7,30.01,NNE,25,0.0,0.0,30,0.00,,---,0.00,VWS V14.00,2013-01-22 01:02:00,
2013-01-21 18:07:00,58.6,28.1,30.01,NNE,25,0.0,0.0,31,0.00,,---,0.00,VWS V14.00,2013-01-22 01:07:00,
2013-01-21 18:12:00,58.0,27.6,30.02,NNE,25,0.0,0.0,31,0.00,,---,0.00,VWS V14.00,2013-01-22 01:12:00,
2013-01-21 18:17:00,57.6,28.0,30.02,NNE,25,0.0,0.0,32,0.00,,---,0.00,VWS V14.00,2013-01-22 01:17:00,
2013-01-21 18:26:00,56.8,27.3,30.02,NNE,25,0.0,0.0,32,0.00,,---,0.00,VWS V14.00,2013-01-22 01:26:00,
2013-01-21 18:31:00,56.2,28.2,30.02,NNE,26,3.0,3.0,34,0.00,,---,0.00,VWS V14.00,2013-01-22 01:31:00,
2013-01-21 18:36:00,56.4,28.4,30.02,NE,41,4.0,5.0,34,0.00,,---,0.00,VWS V14.00,2013-01-22 01:36:00,
2013-01-21 18:41:00,56.6,27.9,30.03,NE,41,2.0,5.0,33,0.00,,---,0.00,VWS V14.00,2013-01-22 01:41:00,
2013-01-21 18:46:00,56.6,27.9,30.03,NE,41,0.0,5.0,33,0.00,,---,0.00,VWS V14.00,2013-01-22 01:46:00,
2013-01-21 18:51:00,56.5,28.5,30.02,NE,44,0.0,5.0,34,0.00,,---,0.00,VWS V14.00,2013-01-22 01:51:00,
2013-01-21 18:56:00,56.4,28.4,30.03,NE,44,0.0,5.0,34,0.00,,---,0.00,VWS V14.00,2013-01-22 01:56:00,
2013-01-21 19:01:00,56.2,28.2,30.03,NE,44,0.0,5.0,34,0.00,,---,0.00,VWS V14.00,2013-01-22 02:01:00,
2013-01-21 19:06:00,55.9,28.7,30.03,NE,44,0.0,1.0,35,0.00,,---,0.00,VWS V14.00,2013-01-22 02:06:00,
2013-01-21 19:11:00,55.7,28.5,30.03,NE,44,3.0,4.0,35,0.00,,---,0.00,VWS V14.00,2013-01-22 02:11:00,
2013-01-21 19:16:00,56.0,28.8,30.03,NE,48,3.0,6.0,35,0.00,,---,0.00,VWS V14.00,2013-01-22 02:16:00,
2013-01-21 19:21:00,56.0,28.8,30.03,NE,50,3.0,6.0,35,0.00,,---,0.00,VWS V14.00,2013-01-22 02:21:00,
2013-01-21 19:26:00,55.9,28.7,30.03,NE,50,0.0,6.0,35,0.00,,---,0.00,VWS V14.00,2013-01-22 02:26:00,
2013-01-21 19:31:00,55.5,28.3,30.03,NE,50,2.0,6.0,35,0.00,,---,0.00,VWS V14.00,2013-01-22 02:31:00,
2013-01-21 19:36:00,55.2,28.7,30.03,NE,50,2.0,4.0,36,0.00,,---,0.00,VWS V14.00,2013-01-22 02:36:00,
2013-01-21 19:41:00,54.9,29.1,30.04,NE,50,2.0,4.0,37,0.00,,---,0.00,VWS V14.00,2013-01-22 02:41:00,
2013-01-21 19:46:00,54.6,28.9,30.03,NE,50,0.0,4.0,37,0.00,,---,0.00,VWS V14.00,2013-01-22 02:46:00,
2013-01-21 19:51:00,54.3,29.2,30.04,NE,50,0.0,4.0,38,0.00,,---,0.00,VWS V14.00,2013-01-22 02:51:00,
2013-01-21 19:56:00,54.0,29.0,30.04,NE,50,0.0,4.0,38,0.00,,---,0.00,VWS V14.00,2013-01-22 02:56:00,
2013-01-21 20:01:00,53.8,29.4,30.04,NE,50,0.0,4.0,39,0.00,,---,0.00,VWS V14.00,2013-01-22 03:01:00,
2013-01-21 20:06:00,53.6,29.3,30.04,NE,50,0.0,0.0,39,0.00,,---,0.00,VWS V14.00,2013-01-22 03:06:00,
2013-01-21 20:11:00,53.2,28.9,30.04,NE,50,0.0,0.0,39,0.00,,---,0.00,VWS V14.00,2013-01-22 03:11:00,
2013-01-21 20:16:00,53.2,28.9,30.04,NE,50,0.0,0.0,39,0.00,,---,0.00,VWS V14.00,2013-01-22 03:16:00,
2013-01-21 20:21:00,53.3,28.4,30.05,NE,50,0.0,0.0,38,0.00,,---,0.00,VWS V14.00,2013-01-22 03:21:00,
2013-01-21 20:26:00,53.6,28.6,30.05,NE,50,0.0,0.0,38,0.00,,---,0.00,VWS V14.00,2013-01-22 03:26:00,
2013-01-21 20:31:00,53.8,28.8,30.05,NE,50,2.0,3.0,38,0.00,,---,0.00,VWS V14.00,2013-01-22 03:31:00,
2013-01-21 20:36:00,54.0,29.0,30.05,NE,51,3.0,4.0,38,0.00,,---,0.00,VWS V14.00,2013-01-22 03:36:00,
2013-01-21 20:41:00,54.2,29.2,30.05,NE,51,3.0,4.0,38,0.00,,---,0.00,VWS V14.00,2013-01-22 03:41:00,
2013-01-21 20:46:00,54.5,29.4,30.05,NE,54,4.0,5.0,38,0.00,,---,0.00,VWS V14.00,2013-01-22 03:46:00,
2013-01-21 20:51:00,54.8,29.0,30.05,ENE,57,2.0,5.0,37,0.00,,---,0.00,VWS V14.00,2013-01-22 03:51:00,
2013-01-21 20:56:00,54.7,29.6,30.05,ENE,57,0.0,5.0,38,0.00,,---,0.00,VWS V14.00,2013-01-22 03:56:00,
2013-01-21 21:01:00,54.4,30.0,30.05,ENE,57,2.0,5.0,39,0.00,,---,0.00,VWS V14.00,2013-01-22 04:01:00,
2013-01-21 21:06:00,54.0,30.2,30.06,NW,319,0.0,4.0,40,0.00,,---,0.00,VWS V14.00,2013-01-22 04:06:00,
2013-01-21 21:11:00,54.0,30.2,30.05,NW,319,0.0,4.0,40,0.00,,---,0.00,VWS V14.00,2013-01-22 04:11:00,
2013-01-21 21:16:00,54.0,30.2,30.05,NW,319,0.0,4.0,40,0.00,,---,0.00,VWS V14.00,2013-01-22 04:16:00,
2013-01-21 21:21:00,53.9,29.5,30.06,SSE,164,5.0,7.0,39,0.00,,---,0.00,VWS V14.00,2013-01-22 04:21:00,
2013-01-21 21:26:00,53.8,30.1,30.06,East,93,4.0,7.0,40,0.00,,---,0.00,VWS V14.00,2013-01-22 04:26:00,
2013-01-21 21:31:00,53.3,29.6,30.06,East,94,3.0,7.0,40,0.00,,---,0.00,VWS V14.00,2013-01-22 04:31:00,
2013-01-21 21:36:00,52.0,29.0,30.06,East,94,0.0,5.0,41,0.00,,---,0.00,VWS V14.00,2013-01-22 04:36:00,
2013-01-21 21:41:00,51.1,28.8,30.07,East,94,0.0,5.0,42,0.00,,---,0.00,VWS V14.00,2013-01-22 04:41:00,
2013-01-21 21:46:00,50.0,28.4,30.07,East,94,2.0,5.0,43,0.00,,---,0.00,VWS V14.00,2013-01-22 04:46:00,
2013-01-21 21:51:00,49.0,27.5,30.07,East,94,2.0,5.0,43,0.00,,---,0.00,VWS V14.00,2013-01-22 04:51:00,
2013-01-21 21:56:00,47.6,27.3,30.08,East,94,3.0,5.0,45,0.00,,---,0.00,VWS V14.00,2013-01-22 04:56:00,
2013-01-21 22:00:00,46.9,26.7,30.08,East,94,0.0,5.0,45,0.00,,---,0.00,VWS V14.00,2013-01-22 05:00:00,
2013-01-21 22:01:00,46.6,26.4,30.08,East,94,0.0,5.0,45,0.00,,---,0.00,VWS V14.00,2013-01-22 05:01:00,
2013-01-21 22:06:00,46.1,27.5,30.08,East,94,0.0,0.0,48,0.00,,---,0.00,VWS V14.00,2013-01-22 05:06:00,
2013-01-21 22:11:00,47.0,27.8,30.09,East,94,0.0,0.0,47,0.00,,---,0.00,VWS V14.00,2013-01-22 05:11:00,
2013-01-21 22:16:00,47.2,27.5,30.08,East,94,0.0,0.0,46,0.00,,---,0.00,VWS V14.00,2013-01-22 05:16:00,
2013-01-21 22:21:00,46.6,26.9,30.08,East,94,0.0,0.0,46,0.00,,---,0.00,VWS V14.00,2013-01-22 05:21:00,
2013-01-21 22:26:00,46.3,28.2,30.09,East,94,0.0,0.0,49,0.00,,---,0.00,VWS V14.00,2013-01-22 05:26:00,
2013-01-21 22:31:00,46.8,28.7,30.09,East,94,3.0,3.0,49,0.00,,---,0.00,VWS V14.00,2013-01-22 05:31:00,
2013-01-21 22:36:00,47.2,28.5,30.09,East,94,2.0,4.0,48,0.00,,---,0.00,VWS V14.00,2013-01-22 05:36:00,
2013-01-21 22:41:00,47.3,28.6,30.09,East,94,2.0,4.0,48,0.00,,---,0.00,VWS V14.00,2013-01-22 05:41:00,
2013-01-21 22:46:00,47.4,28.7,30.09,East,94,0.0,4.0,48,0.00,,---,0.00,VWS V14.00,2013-01-22 05:46:00,
2013-01-21 22:51:00,47.4,28.7,30.09,East,94,0.0,4.0,48,0.00,,---,0.00,VWS V14.00,2013-01-22 05:51:00,
2013-01-21 22:56:00,47.2,29.0,30.08,East,94,3.0,4.0,49,0.00,,---,0.00,VWS V14.00,2013-01-22 05:56:00,
2013-01-21 23:01:00,47.2,29.5,30.08,East,95,4.0,4.0,50,0.00,,---,0.00,VWS V14.00,2013-01-22 06:01:00,
2013-01-21 23:06:00,47.6,29.9,30.09,East,95,2.0,4.0,50,0.00,,---,0.00,VWS V14.00,2013-01-22 06:06:00,
2013-01-21 23:11:00,48.0,29.8,30.08,East,95,0.0,4.0,49,0.00,,---,0.00,VWS V14.00,2013-01-22 06:11:00,
2013-01-21 23:16:00,48.3,30.0,30.08,East,95,0.0,4.0,49,0.00,,---,0.00,VWS V14.00,2013-01-22 06:16:00,
2013-01-21 23:21:00,48.5,30.2,30.09,East,95,0.0,4.0,49,0.00,,---,0.00,VWS V14.00,2013-01-22 06:21:00,
2013-01-21 23:26:00,48.5,29.7,30.09,East,95,0.0,4.0,48,0.00,,---,0.00,VWS V14.00,2013-01-22 06:26:00,
2013-01-21 23:31:00,48.2,30.0,30.09,East,95,0.0,0.0,49,0.00,,---,0.00,VWS V14.00,2013-01-22 06:31:00,
2013-01-21 23:36:00,48.2,30.0,30.09,East,95,0.0,0.0,49,0.00,,---,0.00,VWS V14.00,2013-01-22 06:36:00,
2013-01-21 23:41:00,48.0,29.8,30.09,East,95,0.0,3.0,49,0.00,,---,0.00,VWS V14.00,2013-01-22 06:41:00,
2013-01-21 23:46:00,48.0,30.8,30.09,East,95,0.0,3.0,51,0.00,,---,0.00,VWS V14.00,2013-01-22 06:46:00,
2013-01-21 23:52:00,48.5,30.7,30.09,East,95,2.0,4.0,50,0.00,,---,0.00,VWS V14.00,2013-01-22 06:52:00,
2013-01-21 23:57:00,48.8,31.0,30.09,East,95,4.0,4.0,50,0.00,,---,0.00,VWS V14.00,2013-01-22 06:57:00,